DIRECCIÓN GENERAL DE AERONÁUTICA CIVIL
DIRECCIÓN METEOROLÓGICA DE CHILE
INFORMACIÓN METAR Y TAF

FIR PUERTO MONTT

Estación: SCQP
METAR SCQP 280500Z VRB01KT 9999 2300S R01/1100VP2000N BR NSC 04/04 Q1018=

TAF SCQP 280448Z 2806/2906 VRB02KT 5000 BR NSC TN02/2810Z TX16/2819Z TEMPO 2810/2812 0800 FG BKN002 BECMG 2814/2816 36007KT SCT040 BKN080 BECMG 2820/2822 7000 -SHRA SCT030 OVC060 TEMPO 2823/2902 5000 -RA BKN025 OVC040=

Estación: SCVD
METAR SCVD 280500Z AUTO 00000KT 0500 R35/0500 FG VV001 03/03 Q1019=

TAF SCVD 261030Z 2612/2624 VRB02KT 9999 BKN040 TN12/2612Z TX17/2618Z BECMG 2614/2616 06007KT CAVOK=

Estación: SCJO
METAR SCJO 272300Z 00000KT CAVOK 06/06 Q1018=

TAF SCJO 271058Z 2712/2724 00000KT 0600 FG BKN002 TN01/2712Z TX18/2718Z BECMG 2714/2716 07005KT CAVOK=

Estación: SCTE
METAR SCTE 280500Z 00000KT CAVOK 03/02 Q1019 NOSIG=

TAF SCTE 280449Z 2806/2906 VRB02KT 5000 BR NSC TN02/2810Z TX14/2820Z BECMG 2807/2809 05004KT 9999 NSW NSC PROB30 TEMPO 2810/2812 4000 BR SCT002 BECMG 2814/2816 35010KT SCT030 BKN070 TEMPO 2823/2904 5000 -RA SCT015 OVC020=

Estación: SCPQ
METAR SCPQ 280500Z AUTO VRB02KT CAVOK 06/05 Q1018=

TAF SCPQ 271059Z 2712/2724 08005KT CAVOK TN03/2712Z TX16/2718Z=

Estación: SCON
METAR SCON 272000Z VRB03KT CAVOK 15/06 Q1018=

TAF SCON NIL=

Estación: SCTN
METAR SCTN 280500Z AUTO 04004KT CAVOK 04/03 Q1018=

TAF SCTN 271058Z 2712/2724 08005KT CAVOK TN11/2712Z TX16/2718Z=

Estación: SCFT
METAR SCFT 280500Z AUTO 00000KT //// SKC 00/M01 Q1022=

TAF SCFT NIL=

Estación: SCAP
METAR SCAP 280500Z AUTO 28006KT //// // NSC 02/01 Q1028=

TAF SCAP NIL=

Estación: SCMK
METAR SCMK 272200Z 00000KT CAVOK 11/07 Q1018=

TAF SCMK 271059Z 2712/2724 08005KT CAVOK TN09/2712Z TX15/2718Z=

Estación: SCAS
METAR SCAS 272000Z 00000KT CAVOK 10/03 Q1022=

TAF SCAS NIL=

Estación: SCCY
METAR SCCY 280500Z AUTO 00000KT CAVOK M01/M02 Q1021=

TAF SCCY 271059Z 2712/2724 22005KT 9999 BKN025 TN04/2712Z TX07/2718Z=

Estación: SCBA
METAR SCBA 280500Z AUTO 13001KT 7000 BR NCD M04/M04 Q1021=

TAF SCBA 280450Z 2806/2906 00000KT 9999 SCT040 BKN100 TNM04/2810Z TX09/2819Z BECMG 2810/2812 12005KT SCT030 TEMPO 2816/2822 CAVOK=

Estación: SCCC
METAR SCCC 272000Z 20006KT 9999 SCT025 OVC040 06/01 Q1025=

TAF SCCC NIL=

Estación: SCHR
METAR SCHR 272000Z 00000KT 9999 SCT035 05/01 Q1019=

TAF SCHR 271054Z 2712/2800 36005KT 9999 FEW010 TNM00/2712Z TX08/2718Z TEMPO 2712/2716 VRB03KT 2000 BCFG SCT007 BECMG 2716/2718 03005KT BECMG 2721/2723 2000 BCFG SCT007=


Volver